Time;durP1;ratioP1;P1;durP2;ratioP2;P2;SDS_P1;SDS_P2;PMS_P1;PMS_P2;Temp;Humidity;BMP_temperature;BMP_pressure;BME280_temperature;BME280_humidity;BME280_pressure;Samples;Min_cycle;Max_cycle;Signal;HPM_P1;HPM_P2
2021/08/29 00:01:10;;;;;;;6.65;3.03;;;;;;;18.09;58.68;102040.94;4838641;28;113207;-73
2021/08/29 00:03:37;;;;;;;5.72;2.92;;;;;;;18.10;58.86;102034.59;4872954;28;113514;-74
2021/08/29 00:06:04;;;;;;;6.95;3.00;;;;;;;18.12;58.91;102031.81;4872508;28;124571;-74
2021/08/29 00:08:32;;;;;;;4.53;2.75;;;;;;;18.14;59.01;102024.56;4841031;28;122715;-74
2021/08/29 00:10:59;;;;;;;7.20;3.28;;;;;;;18.16;59.17;102023.53;4873648;28;113903;-74
2021/08/29 00:13:27;;;;;;;8.38;3.10;;;;;;;18.17;59.09;102025.25;4856044;28;112022;-74
2021/08/29 00:15:54;;;;;;;7.20;3.13;;;;;;;18.19;58.92;102022.47;4873301;28;123945;-75
2021/08/29 00:18:21;;;;;;;4.13;2.83;;;;;;;18.20;59.11;102019.72;4856128;28;122840;-74
2021/08/29 00:20:48;;;;;;;5.95;3.00;;;;;;;18.23;59.14;102013.28;4871633;28;114560;-74
2021/08/29 00:23:15;;;;;;;7.10;3.20;;;;;;;18.25;59.16;102011.38;4854548;28;113225;-74
2021/08/29 00:25:42;;;;;;;7.03;3.00;;;;;;;18.28;59.22;102016.56;4872435;28;123553;-74
2021/08/29 00:28:09;;;;;;;5.63;3.10;;;;;;;18.29;59.18;102013.81;4873210;28;124613;-75
2021/08/29 00:30:36;;;;;;;6.38;2.90;;;;;;;18.32;59.03;102012.75;4873336;28;115689;-75
2021/08/29 00:33:03;;;;;;;7.15;2.95;;;;;;;18.32;59.38;102012.75;4844741;28;114539;-74
2021/08/29 00:35:33;;;;;;;6.63;3.28;;;;;;;18.35;59.02;102007.22;4854152;28;123122;-74
2021/08/29 00:38:00;;;;;;;6.53;2.90;;;;;;;18.36;59.24;102014.28;4855601;28;122827;-75
2021/08/29 00:40:28;;;;;;;6.80;3.25;;;;;;;18.37;59.60;102002.63;4832028;28;114784;-76
2021/08/29 00:42:55;;;;;;;6.28;3.13;;;;;;;18.38;59.22;102012.38;4871996;28;114310;-75
2021/08/29 00:45:25;;;;;;;4.38;2.80;;;;;;;18.39;59.43;102003.41;4855280;28;123595;-75
2021/08/29 00:47:52;;;;;;;5.80;3.00;;;;;;;18.41;59.53;102001.47;4855783;28;123503;-74
2021/08/29 00:50:19;;;;;;;7.22;3.03;;;;;;;18.44;59.24;102006.69;4855689;28;113722;-76
2021/08/29 00:52:48;;;;;;;6.57;2.97;;;;;;;18.46;59.53;101999.41;4853598;28;113515;-74
2021/08/29 00:55:18;;;;;;;7.35;3.30;;;;;;;18.50;59.49;102008.13;4851874;28;126199;-75
2021/08/29 00:57:48;;;;;;;5.97;3.08;;;;;;;18.51;59.56;102006.31;4855433;28;123989;-75
2021/08/29 01:00:19;;;;;;;6.07;2.75;;;;;;;18.53;59.55;102009.75;4858105;28;114317;-75
2021/08/29 01:02:54;;;;;;;5.22;2.95;;;;;;;18.55;59.54;102007.84;4857179;28;113561;-75
2021/08/29 01:05:26;;;;;;;8.77;2.88;;;;;;;18.56;59.54;102005.06;4857875;28;123572;-75
2021/08/29 01:08:38;;;;;;;6.07;2.83;;;;;;;18.55;59.49;101997.09;4842985;28;124223;-75
2021/08/29 01:11:15;;;;;;;6.82;3.00;;;;;;;18.56;59.56;102004.22;4859451;28;113840;-76
2021/08/29 01:13:45;;;;;;;7.72;2.72;;;;;;;18.56;59.52;101988.13;4858978;28;113731;-75
2021/08/29 01:16:18;;;;;;;8.55;3.25;;;;;;;18.59;59.65;101998.63;4858592;28;123188;-74
2021/08/29 01:19:02;;;;;;;8.53;2.97;;;;;;;18.63;59.58;102000.22;4858559;28;123501;-74
2021/08/29 01:21:34;;;;;;;5.10;2.75;;;;;;;18.63;59.61;101995.69;4856292;28;114321;-74
2021/08/29 01:24:07;;;;;;;8.10;3.40;;;;;;;18.66;59.60;101995.50;4858322;28;115049;-75
2021/08/29 01:27:10;;;;;;;7.80;3.03;;;;;;;18.69;59.52;101994.47;4856330;28;123166;-74
2021/08/29 01:29:37;;;;;;;6.07;2.67;;;;;;;18.71;59.52;101992.53;4860017;28;122716;-74
2021/08/29 01:32:08;;;;;;;9.10;2.78;;;;;;;18.73;59.48;101985.25;4858985;28;116208;-74
2021/08/29 01:34:40;;;;;;;7.28;2.95;;;;;;;18.73;59.63;102001.38;4858088;28;114111;-74
2021/08/29 01:37:17;;;;;;;7.15;3.05;;;;;;;18.74;59.49;101987.00;4849381;28;124292;-74
2021/08/29 01:39:47;;;;;;;9.25;2.90;;;;;;;18.76;59.48;101995.81;4855872;28;123421;-75
2021/08/29 01:42:20;;;;;;;5.40;2.58;;;;;;;18.77;59.59;101992.16;4849122;28;113626;-75
2021/08/29 01:44:48;;;;;;;6.82;2.83;;;;;;;18.77;59.71;101994.84;4851139;28;113190;-75
2021/08/29 01:47:16;;;;;;;6.25;3.03;;;;;;;18.79;59.65;101990.25;4857155;28;123635;-75
2021/08/29 01:49:45;;;;;;;8.35;3.00;;;;;;;18.81;59.69;101999.09;4847615;28;125121;-75
2021/08/29 01:52:14;;;;;;;6.25;2.80;;;;;;;18.82;59.61;101998.16;4843599;28;113715;-75
2021/08/29 01:54:59;;;;;;;6.43;2.65;;;;;;;18.84;59.55;101993.56;4874134;28;115129;-74
2021/08/29 01:57:59;;;;;;;6.93;2.67;;;;;;;18.85;59.64;101994.41;4840866;28;125000;-75
2021/08/29 02:00:39;;;;;;;7.10;2.80;;;;;;;18.88;59.58;101998.75;4870167;28;124521;-75
2021/08/29 02:03:07;;;;;;;5.32;2.55;;;;;;;18.88;59.65;102001.44;4857454;28;113116;-74
2021/08/29 02:05:35;;;;;;;8.18;2.83;;;;;;;18.89;59.87;102001.31;4858490;28;112957;-75
2021/08/29 02:08:05;;;;;;;8.57;3.08;;;;;;;18.91;59.75;102010.16;4874871;28;124805;-75
2021/08/29 02:10:36;;;;;;;13.23;3.00;;;;;;;18.90;59.50;101996.81;4854644;28;122959;-75
2021/08/29 02:13:25;;;;;;;6.07;2.67;;;;;;;18.92;59.71;101995.75;4856204;28;115022;-75
2021/08/29 02:16:02;;;;;;;7.10;2.80;;;;;;;18.94;59.67;101992.97;4872659;28;115193;-75
2021/08/29 02:18:33;;;;;;;5.78;2.88;;;;;;;18.95;59.64;101989.31;4855229;28;123478;-75
2021/08/29 02:21:01;;;;;;;6.90;3.15;;;;;;;18.95;59.52;102000.06;4858490;28;123456;-74
2021/08/29 02:23:29;;;;;;;9.18;3.13;;;;;;;18.95;59.78;101986.63;4842947;28;113521;-74
2021/08/29 02:25:56;;;;;;;6.32;2.58;;;;;;;18.97;60.02;101984.75;4875221;28;114306;-74
2021/08/29 02:28:26;;;;;;;9.18;2.75;;;;;;;18.98;59.68;101989.16;4857151;28;123114;-75
2021/08/29 02:30:54;;;;;;;8.13;3.10;;;;;;;19.00;59.75;101979.16;4858001;28;122768;-74
2021/08/29 02:33:23;;;;;;;8.57;3.28;;;;;;;19.02;59.72;101990.66;4857858;28;112416;-75
2021/08/29 02:35:53;;;;;;;6.63;3.03;;;;;;;19.04;59.72;101983.38;4854964;28;97577;-74
2021/08/29 02:38:25;;;;;;;6.05;2.95;;;;;;;19.05;59.37;101979.75;4840135;28;123431;-75
2021/08/29 02:40:55;;;;;;;8.48;3.20;;;;;;;19.05;59.69;101985.13;4856983;28;123023;-74
2021/08/29 02:43:23;;;;;;;8.90;3.33;;;;;;;19.05;59.79;101985.13;4857467;28;114207;-75
2021/08/29 02:46:05;;;;;;;9.25;3.17;;;;;;;19.06;59.78;101986.81;4870898;28;113608;-75
2021/08/29 02:48:32;;;;;;;7.50;3.00;;;;;;;19.05;59.47;101983.28;4791803;29;121464;-75
2021/08/29 02:51:00;;;;;;;8.30;2.67;;;;;;;19.06;59.74;101981.47;4769793;29;123080;-75
2021/08/29 02:53:27;;;;;;;4.82;2.88;;;;;;;19.04;59.69;101983.38;4777853;29;113332;-75
2021/08/29 02:55:57;;;;;;;7.57;3.38;;;;;;;19.06;59.90;101981.47;4764814;29;112841;-75
2021/08/29 02:58:27;;;;;;;5.60;2.92;;;;;;;19.06;59.72;101978.78;4784237;29;123662;-75
2021/08/29 03:01:06;;;;;;;6.63;2.75;;;;;;;19.05;59.46;101979.75;4799314;29;123738;-75
2021/08/29 03:03:52;;;;;;;5.15;2.50;;;;;;;19.05;59.57;101974.38;4784366;29;115742;-76
2021/08/29 03:06:22;;;;;;;6.70;2.90;;;;;;;19.06;59.61;101976.09;4782972;29;114381;-75
2021/08/29 03:08:50;;;;;;;9.75;3.28;;;;;;;19.06;59.56;101976.97;4797749;29;123274;-75
2021/08/29 03:11:19;;;;;;;7.10;2.90;;;;;;;19.07;59.53;101961.72;4786517;29;123113;-75
2021/08/29 03:13:49;;;;;;;7.97;3.08;;;;;;;19.09;59.55;101970.53;4783339;29;113396;-74
2021/08/29 03:16:16;;;;;;;6.15;2.70;;;;;;;19.09;59.44;101965.16;4800607;29;113969;-74
2021/08/29 03:18:46;;;;;;;5.88;2.90;;;;;;;19.09;59.48;101970.53;4783131;29;123864;-75
2021/08/29 03:21:46;;;;;;;6.95;3.35;;;;;;;19.08;59.55;101979.56;4769008;29;124125;-75
2021/08/29 03:24:13;;;;;;;7.00;3.42;;;;;;;19.06;59.51;101974.28;4798385;29;112997;-75
2021/08/29 03:26:43;;;;;;;7.65;3.22;;;;;;;19.07;59.71;101972.47;4787530;29;113175;-74
2021/08/29 03:29:23;;;;;;;7.18;3.20;;;;;;;19.07;59.64;101972.47;4798134;29;123677;-74
2021/08/29 03:31:51;;;;;;;6.85;3.10;;;;;;;19.06;59.82;101976.09;4772995;29;123255;-74
2021/08/29 03:34:19;;;;;;;7.47;3.35;;;;;;;19.06;59.69;101968.03;4772538;29;113371;-74
2021/08/29 03:36:47;;;;;;;7.38;3.45;;;;;;;19.06;59.63;101968.03;4802233;29;112365;-74
2021/08/29 03:39:25;;;;;;;10.85;3.40;;;;;;;19.05;59.54;101959.13;4801812;29;123934;-74
2021/08/29 03:41:56;;;;;;;5.63;3.13;;;;;;;19.07;59.65;101956.34;4799254;29;124345;-74
2021/08/29 03:44:24;;;;;;;7.13;3.17;;;;;;;19.08;59.60;101947.34;4784657;29;113775;-74
2021/08/29 03:49:49;;;;;;;5.10;3.28;;;;;;;19.08;59.56;101941.97;5131704;23;100094;-74
2021/08/29 03:52:21;;;;;;;7.95;3.25;;;;;;;19.09;59.60;101949.06;4869086;28;123528;-75
2021/08/29 03:55:04;;;;;;;6.07;2.80;;;;;;;19.10;59.65;101940.06;4836608;29;114362;-75
2021/08/29 03:57:32;;;;;;;5.72;3.15;;;;;;;19.09;59.66;101941.00;4860365;28;114268;-75
2021/08/29 04:00:00;;;;;;;6.72;3.08;;;;;;;19.11;59.71;101941.75;4852649;29;123234;-75
2021/08/29 04:02:28;;;;;;;8.13;3.20;;;;;;;19.12;59.56;101937.25;4839178;28;124598;-75
2021/08/29 04:04:56;;;;;;;7.65;3.38;;;;;;;19.12;59.66;101948.88;4844382;29;112521;-75
2021/08/29 04:07:26;;;;;;;6.10;3.20;;;;;;;19.12;59.67;101943.50;4860814;29;114081;-75
2021/08/29 04:10:04;;;;;;;6.00;3.17;;;;;;;19.12;59.56;101943.50;4854422;29;123639;-74
2021/08/29 04:12:36;;;;;;;6.22;3.33;;;;;;;19.14;59.64;101936.22;4825935;29;124589;-74
2021/08/29 04:15:26;;;;;;;9.82;3.05;;;;;;;19.13;59.56;101934.47;4853466;28;114361;-74
2021/08/29 04:17:53;;;;;;;8.15;3.08;;;;;;;19.14;59.44;101936.22;4819873;29;114248;-74
2021/08/29 04:20:20;;;;;;;7.15;3.17;;;;;;;19.15;59.70;101935.22;4834160;29;123789;-74
2021/08/29 04:22:48;;;;;;;8.88;3.15;;;;;;;19.14;59.74;101936.22;4822464;29;123091;-75
2021/08/29 04:25:16;;;;;;;6.90;2.85;;;;;;;19.14;59.51;101941.56;4841196;28;113520;-75
2021/08/29 04:27:43;;;;;;;5.32;2.78;;;;;;;19.12;59.66;101927.38;4854582;29;114653;-74
2021/08/29 04:30:11;;;;;;;5.40;2.80;;;;;;;19.14;59.42;101933.53;4822390;29;123810;-75
2021/08/29 04:32:43;;;;;;;6.45;2.92;;;;;;;19.14;59.48;101925.47;4836852;29;124507;-75
2021/08/29 04:35:17;;;;;;;8.57;2.88;;;;;;;19.14;59.44;101925.47;4825963;29;114037;-75
2021/08/29 04:37:44;;;;;;;5.13;2.70;;;;;;;19.13;59.62;101923.72;4828192;29;113301;-74
2021/08/29 04:40:14;;;;;;;5.20;3.13;;;;;;;19.13;59.44;101918.34;4845229;28;123516;-75
2021/08/29 04:42:51;;;;;;;8.70;3.10;;;;;;;19.13;59.62;101918.34;4839888;29;123573;-74
2021/08/29 04:45:21;;;;;;;6.15;2.65;;;;;;;19.12;59.54;101916.66;4823963;29;115266;-75
2021/08/29 04:47:52;;;;;;;7.88;3.08;;;;;;;19.14;59.61;101925.47;4839680;28;114821;-74
2021/08/29 04:50:20;;;;;;;6.90;3.45;;;;;;;19.13;59.67;101923.72;4842226;28;123201;-74
2021/08/29 04:52:48;;;;;;;7.65;3.55;;;;;;;19.14;59.59;101925.47;4840244;29;122954;-74
2021/08/29 04:55:16;;;;;;;8.82;3.22;;;;;;;19.15;59.77;101926.31;4843553;28;113872;-75
2021/08/29 04:57:43;;;;;;;6.35;3.05;;;;;;;19.16;59.76;101930.75;4824267;29;113366;-75
2021/08/29 05:00:10;;;;;;;6.00;2.83;;;;;;;19.17;59.68;101924.41;4824589;29;123779;-75
2021/08/29 05:02:37;;;;;;;7.93;3.25;;;;;;;19.17;59.67;101922.56;4828340;29;123110;-75
2021/08/29 05:05:06;;;;;;;5.53;2.78;;;;;;;19.18;59.71;101932.34;4829666;29;113230;-75
2021/08/29 05:07:33;;;;;;;6.25;3.10;;;;;;;19.19;59.48;101923.34;4843045;29;113562;-75
2021/08/29 05:10:02;;;;;;;6.32;2.85;;;;;;;19.19;59.65;101920.66;4839396;29;124281;-75
2021/08/29 05:12:37;;;;;;;5.43;2.92;;;;;;;19.20;59.67;101930.44;4826152;29;123434;-74
2021/08/29 05:15:04;;;;;;;7.20;2.90;;;;;;;19.20;59.53;101927.75;4857813;29;114362;-75
2021/08/29 05:17:32;;;;;;;6.68;2.70;;;;;;;19.20;59.47;101925.06;4839278;29;113311;-75
2021/08/29 05:19:59;;;;;;;6.32;2.60;;;;;;;19.21;59.58;101932.19;4824451;29;123602;-74
2021/08/29 05:22:52;;;;;;;6.45;2.83;;;;;;;19.22;59.54;101933.88;4855832;29;123851;-74
2021/08/29 05:25:38;;;;;;;6.38;2.72;;;;;;;19.22;59.56;101925.81;4840616;29;114754;-74
2021/08/29 05:28:05;;;;;;;7.15;2.60;;;;;;;19.23;59.61;101935.63;4842950;28;113365;-74
2021/08/29 05:30:32;;;;;;;4.63;2.33;;;;;;;19.24;59.51;101931.09;4824057;29;123567;-75
2021/08/29 05:32:59;;;;;;;6.47;2.65;;;;;;;19.24;59.55;101931.97;4833693;29;123018;-75
2021/08/29 05:35:27;;;;;;;7.28;2.75;;;;;;;19.24;59.42;101929.28;4827896;29;114610;-76
2021/08/29 05:37:58;;;;;;;5.10;2.53;;;;;;;19.26;59.59;101935.41;4853664;29;114073;-75
2021/08/29 05:40:44;;;;;;;6.50;2.65;;;;;;;19.25;59.57;101928.31;4856502;29;125048;-75
2021/08/29 05:43:30;;;;;;;;;;;;;;;19.24;59.46;101929.28;4858688;29;124868;-74
2021/08/29 05:45:57;;;;;;;6.75;2.40;;;;;;;19.29;59.51;101928.09;4841678;28;114038;-75
2021/08/29 05:48:24;;;;;;;4.75;2.50;;;;;;;19.30;59.73;101927.16;4837793;29;114031;-75
2021/08/29 05:50:51;;;;;;;5.15;2.42;;;;;;;19.32;59.73;101927.91;4844026;28;123457;-75
2021/08/29 05:53:19;;;;;;;5.47;2.20;;;;;;;19.34;59.81;101926.00;4828677;29;123303;-75
2021/08/29 05:55:50;;;;;;;5.47;2.72;;;;;;;19.38;59.73;101927.50;4837674;29;113798;-74
2021/08/29 05:58:17;;;;;;;9.57;2.63;;;;;;;19.40;59.66;101925.59;4844473;28;114217;-74
2021/08/29 06:00:44;;;;;;;7.30;2.90;;;;;;;19.42;59.66;101923.66;4838443;29;123305;-75
2021/08/29 06:03:13;;;;;;;6.03;2.78;;;;;;;19.46;59.78;101925.22;4841659;28;123082;-74
2021/08/29 06:05:41;;;;;;;6.20;2.72;;;;;;;19.48;59.72;101925.97;4825272;29;114048;-75
2021/08/29 06:08:15;;;;;;;6.22;2.85;;;;;;;19.51;59.85;101927.56;4838771;28;116627;-74
2021/08/29 06:10:43;;;;;;;5.70;2.67;;;;;;;19.54;59.71;101928.25;4831796;29;123526;-75
2021/08/29 06:13:11;;;;;;;5.28;2.78;;;;;;;19.55;59.63;101919.22;4855838;29;124772;-75
2021/08/29 06:15:40;;;;;;;6.75;3.25;;;;;;;19.56;59.60;101926.31;4848874;28;113892;-75
2021/08/29 06:18:10;;;;;;;6.72;2.80;;;;;;;19.56;59.65;101923.63;4836739;28;113355;-74
2021/08/29 06:20:39;;;;;;;7.72;2.72;;;;;;;19.57;59.76;101927.16;4847883;29;124214;-75
2021/08/29 06:23:06;;;;;;;6.22;2.60;;;;;;;19.56;59.47;101920.94;4840618;29;123070;-75
2021/08/29 06:25:52;;;;;;;7.80;2.90;;;;;;;19.55;59.59;101927.28;4842998;29;115778;-75
2021/08/29 06:28:54;;;;;;;6.90;2.83;;;;;;;19.56;59.59;101926.31;4815604;29;115350;-75
2021/08/29 06:31:50;;;;;;;5.88;2.70;;;;;;;19.60;59.56;101927.84;4803466;29;123842;-75
2021/08/29 06:34:34;;;;;;;8.98;2.72;;;;;;;19.63;59.84;101922.25;4837423;29;123173;-75
2021/08/29 06:37:14;;;;;;;6.45;2.58;;;;;;;19.68;59.93;101919.25;4839034;29;113810;-75
2021/08/29 06:39:42;;;;;;;7.43;2.80;;;;;;;19.72;59.89;101919.91;4854624;28;114280;-76
2021/08/29 06:42:11;;;;;;;8.40;2.58;;;;;;;19.77;59.89;101923.19;4825403;29;123176;-75
2021/08/29 06:44:39;;;;;;;7.50;2.60;;;;;;;19.80;59.87;101917.63;4839655;29;122960;-76
2021/08/29 06:47:25;;;;;;;5.72;2.65;;;;;;;19.80;59.91;101907.72;4841685;29;115120;-75
2021/08/29 06:50:10;;;;;;;;;;;;;;;19.79;59.68;101910.53;4853799;28;114334;-75
2021/08/29 06:52:56;;;;;;;6.78;2.75;;;;;;;19.83;59.65;101902.16;4854538;29;125048;-75
2021/08/29 06:55:56;;;;;;;10.45;2.80;;;;;;;19.83;59.75;101902.16;4853139;29;123813;-75
2021/08/29 06:58:41;;;;;;;6.78;2.40;;;;;;;19.83;59.95;101902.16;4852099;28;115014;-75
2021/08/29 07:01:08;;;;;;;8.65;2.38;;;;;;;19.86;59.86;101911.84;4837775;29;113989;-76
2021/08/29 07:03:36;;;;;;;7.55;2.63;;;;;;;19.88;59.91;101904.53;4827963;29;123257;-76
2021/08/29 07:06:06;;;;;;;4.70;2.60;;;;;;;19.89;59.82;101900.88;4836776;29;124194;-75
2021/08/29 07:08:52;;;;;;;9.73;2.75;;;;;;;19.90;59.90;101902.59;4853954;28;114955;-75
2021/08/29 07:11:19;;;;;;;9.38;3.00;;;;;;;19.95;59.90;101895.09;4855709;29;114637;-74
2021/08/29 07:14:18;;;;;;;6.93;2.50;;;;;;;19.98;59.85;101900.22;4854399;29;124444;-74
2021/08/29 07:16:46;;;;;;;10.48;2.70;;;;;;;20.00;60.07;101892.06;4839904;29;123117;-74
2021/08/29 07:19:13;;;;;;;5.90;2.13;;;;;;;20.03;59.74;101892.72;4852550;29;115808;-75
2021/08/29 07:22:18;;;;;;;7.10;2.42;;;;;;;20.05;59.82;101899.84;4857602;28;114675;-74
2021/08/29 07:25:04;;;;;;;5.55;2.28;;;;;;;20.05;59.74;101899.84;4853273;29;125592;-75
2021/08/29 07:27:50;;;;;;;7.80;2.38;;;;;;;20.07;59.55;101892.53;4852914;29;124779;-75
2021/08/29 07:30:36;;;;;;;7.63;2.20;;;;;;;20.09;59.77;101895.97;4854996;29;115367;-75
2021/08/29 07:33:09;;;;;;;10.10;2.58;;;;;;;20.10;59.70;101897.66;4834114;29;113666;-75
2021/08/29 07:35:46;;;;;;;7.95;2.40;;;;;;;20.14;59.74;101896.53;4856387;28;123622;-75
2021/08/29 07:38:45;;;;;;;6.53;2.45;;;;;;;20.17;59.64;101904.38;4847720;28;123718;-75
2021/08/29 07:41:13;;;;;;;8.48;2.33;;;;;;;20.20;59.49;101898.78;4838246;29;114281;-75
2021/08/29 07:43:40;;;;;;;5.93;2.10;;;;;;;20.24;59.57;101905.66;4849010;29;113685;-76
2021/08/29 07:46:09;;;;;;;7.80;2.45;;;;;;;20.26;59.73;101903.72;4837352;29;124094;-76
2021/08/29 07:48:37;;;;;;;7.65;2.90;;;;;;;20.30;59.58;101899.84;4841012;28;124099;-75
2021/08/29 07:51:06;;;;;;;7.20;2.60;;;;;;;20.35;59.65;101903.09;4826619;29;113624;-75
2021/08/29 07:53:50;;;;;;;8.98;2.40;;;;;;;20.38;59.40;101902.91;4830305;29;113065;-75
2021/08/29 07:56:43;;;;;;;7.22;2.20;;;;;;;20.38;59.44;101900.19;4854445;29;123748;-75
2021/08/29 07:59:10;;;;;;;6.03;2.13;;;;;;;20.37;59.34;101906.53;4822253;29;123378;-75
2021/08/29 08:01:39;;;;;;;7.85;2.15;;;;;;;20.39;59.37;101899.22;4848370;29;113530;-75
2021/08/29 08:04:42;;;;;;;6.78;2.60;;;;;;;20.39;59.48;101899.22;4848723;29;113779;-75
2021/08/29 08:07:28;;;;;;;8.75;2.33;;;;;;;20.38;59.28;101897.50;4855881;29;125224;-75
2021/08/29 08:10:33;;;;;;;5.97;2.38;;;;;;;20.39;59.38;101899.22;4856685;28;123899;-76
2021/08/29 08:13:20;;;;;;;9.07;2.30;;;;;;;20.37;59.16;101895.78;4854517;29;115718;-76
2021/08/29 08:15:47;;;;;;;7.78;2.53;;;;;;;20.35;59.31;101892.34;4849601;28;113843;-75
2021/08/29 08:18:14;;;;;;;6.38;2.40;;;;;;;20.35;59.51;101895.03;4830412;28;123411;-76
2021/08/29 08:20:42;;;;;;;9.60;2.55;;;;;;;20.33;59.36;101894.28;4846053;28;124095;-75
2021/08/29 08:23:31;;;;;;;10.15;2.40;;;;;;;20.30;59.30;101899.84;4821682;29;114455;-75
2021/08/29 08:26:19;;;;;;;5.00;1.90;;;;;;;20.27;59.59;101905.47;4828619;29;114242;-76
2021/08/29 08:29:04;;;;;;;5.75;2.15;;;;;;;20.22;59.67;101908.47;4844537;29;124922;-76
2021/08/29 08:31:50;;;;;;;;;;;;;;;20.17;59.41;101907.06;4849062;29;124657;-76
2021/08/29 08:34:35;;;;;;;8.23;2.17;;;;;;;20.17;59.63;101915.13;4860415;28;115372;-76
2021/08/29 08:37:13;;;;;;;6.63;2.28;;;;;;;20.11;60.01;101911.03;4841900;29;113540;-76
2021/08/29 08:39:57;;;;;;;6.75;2.53;;;;;;;20.09;60.11;101906.72;4839207;29;122517;-76
2021/08/29 08:42:45;;;;;;;7.70;2.13;;;;;;;20.06;60.20;101906.94;4858575;29;124143;-75
2021/08/29 08:45:31;;;;;;;5.45;2.10;;;;;;;20.01;60.24;101910.78;4859631;29;114982;-76
2021/08/29 08:48:21;;;;;;;6.97;2.53;;;;;;;19.96;60.35;101907.53;4822152;29;114507;-76
2021/08/29 08:51:11;;;;;;;7.68;2.50;;;;;;;19.92;60.37;101908.72;4853132;29;124706;-77
2021/08/29 08:54:01;;;;;;;6.85;2.20;;;;;;;19.88;60.34;101904.53;4859367;29;124927;-75
2021/08/29 08:56:52;;;;;;;9.60;2.20;;;;;;;19.84;60.58;101908.41;4832799;29;114797;-76
2021/08/29 08:59:19;;;;;;;9.90;2.40;;;;;;;19.82;60.81;101907.63;4831112;29;113874;-76
2021/08/29 09:02:07;;;;;;;7.05;2.22;;;;;;;19.81;60.89;101903.22;4816208;29;125141;-77
2021/08/29 09:04:53;;;;;;;9.40;2.50;;;;;;;19.79;60.82;101907.84;4852372;28;125022;-75
2021/08/29 09:07:20;;;;;;;6.15;2.30;;;;;;;19.78;60.83;101904.28;4826190;29;114434;-76
2021/08/29 09:09:48;;;;;;;6.60;2.20;;;;;;;19.77;61.00;101901.69;4841535;29;114288;-76
2021/08/29 09:12:16;;;;;;;6.50;2.28;;;;;;;19.75;60.88;101900.94;4841743;29;123569;-76
2021/08/29 09:14:46;;;;;;;7.30;2.40;;;;;;;19.74;61.10;101896.50;4859623;28;124027;-77
2021/08/29 09:17:23;;;;;;;8.35;2.72;;;;;;;19.71;61.03;101907.47;4841556;29;114449;-77
2021/08/29 09:19:51;;;;;;;5.88;2.33;;;;;;;19.71;61.08;101902.94;4825058;29;113254;-78
2021/08/29 09:22:26;;;;;;;7.72;2.28;;;;;;;19.70;61.21;101905.72;4856236;29;123445;-77
2021/08/29 09:25:16;;;;;;;6.20;2.33;;;;;;;19.68;61.35;101896.91;4840296;29;125513;-76
2021/08/29 09:28:00;;;;;;;7.00;2.42;;;;;;;19.65;61.31;101903.34;4826177;29;113280;-77
2021/08/29 09:30:47;;;;;;;6.10;2.13;;;;;;;19.62;61.41;101898.16;4859356;29;115033;-76
2021/08/29 09:33:17;;;;;;;5.22;1.80;;;;;;;19.59;61.41;101899.25;4830728;29;124511;-77
2021/08/29 09:35:44;;;;;;;6.30;2.10;;;;;;;19.56;61.55;101899.44;4833120;29;123059;-76
2021/08/29 09:38:40;;;;;;;7.60;2.30;;;;;;;19.54;61.65;101896.00;4847465;28;114926;-77
2021/08/29 09:41:25;;;;;;;9.07;2.47;;;;;;;19.53;61.42;101894.25;4828193;29;113495;-77
2021/08/29 09:44:22;;;;;;;5.95;2.17;;;;;;;19.52;61.74;101902.44;4840901;29;124802;-76
2021/08/29 09:47:05;;;;;;;8.88;2.53;;;;;;;19.53;61.82;101894.25;4832874;29;123185;-77
2021/08/29 09:49:53;;;;;;;6.88;2.13;;;;;;;19.52;61.68;101892.56;4812075;29;114184;-76
2021/08/29 09:52:27;;;;;;;6.10;1.90;;;;;;;19.54;61.84;101895.16;4858950;29;113743;-77
2021/08/29 09:55:11;;;;;;;4.00;1.60;;;;;;;19.54;61.72;101892.47;4814678;29;124664;-76
2021/08/29 09:58:24;;;;;;;4.95;1.70;;;;;;;19.51;61.70;101890.81;4840341;29;123850;-76
2021/08/29 10:01:13;;;;;;;3.90;1.65;;;;;;;19.54;61.96;101896.00;4832171;29;114811;-76
2021/08/29 10:04:15;;;;;;;5.97;1.80;;;;;;;19.57;61.99;101890.44;4842381;29;115185;-76
2021/08/29 10:06:42;;;;;;;4.35;1.85;;;;;;;19.60;62.00;101895.59;4829976;29;124175;-76
2021/08/29 10:09:12;;;;;;;6.28;2.00;;;;;;;19.62;62.13;101877.53;4839526;29;123186;-76
2021/08/29 10:11:52;;;;;;;4.43;1.77;;;;;;;19.64;62.11;101878.28;4843145;29;114278;-75
2021/08/29 10:14:21;;;;;;;4.32;1.90;;;;;;;19.64;62.28;101880.97;4858323;29;114465;-75
2021/08/29 10:17:07;;;;;;;4.38;1.83;;;;;;;19.64;62.09;101870.22;4858245;29;125657;-76
2021/08/29 10:19:53;;;;;;;5.85;1.67;;;;;;;19.64;62.09;101875.59;4857421;28;125153;-75
2021/08/29 10:22:56;;;;;;;7.78;2.05;;;;;;;19.64;62.17;101875.59;4835178;29;116361;-75
2021/08/29 10:25:24;;;;;;;6.60;2.05;;;;;;;19.64;62.41;101864.84;4828353;29;112816;-76
2021/08/29 10:28:03;;;;;;;4.15;1.60;;;;;;;19.64;62.31;101864.84;4841081;29;123166;-76
2021/08/29 10:30:45;;;;;;;4.10;1.70;;;;;;;19.64;62.17;101875.59;4831155;29;124209;-76
2021/08/29 10:33:47;;;;;;;7.05;1.90;;;;;;;19.62;62.36;101872.16;4851143;28;114088;-76
2021/08/29 10:36:19;;;;;;;4.53;1.95;;;;;;;19.64;62.27;101864.00;4841502;29;113724;-75
2021/08/29 10:39:04;;;;;;;6.57;1.67;;;;;;;19.63;62.53;101868.50;4843877;29;124694;-76
2021/08/29 10:42:05;;;;;;;5.28;1.75;;;;;;;19.63;62.55;101863.13;4840901;28;123430;-76
2021/08/29 10:44:51;;;;;;;6.25;2.40;;;;;;;19.63;62.58;101857.75;4856902;28;114644;-76
2021/08/29 10:47:38;;;;;;;7.55;2.45;;;;;;;19.65;62.84;101857.66;4829677;29;114501;-76
2021/08/29 10:50:39;;;;;;;7.00;2.13;;;;;;;19.65;62.64;101854.97;4821918;29;124579;-75
2021/08/29 10:53:33;;;;;;;6.75;1.92;;;;;;;19.64;62.80;101859.47;4841734;29;123179;-76
2021/08/29 10:56:16;;;;;;;5.03;2.00;;;;;;;19.64;62.74;101862.16;4840313;28;113972;-76
2021/08/29 10:58:48;;;;;;;6.85;2.10;;;;;;;19.63;62.59;101857.75;4844623;28;115129;-76
2021/08/29 11:01:48;;;;;;;5.40;1.98;;;;;;;19.61;62.77;101851.63;4827355;29;123389;-76
2021/08/29 11:04:34;;;;;;;4.65;1.90;;;;;;;19.61;62.82;101859.69;4854281;29;124660;-76
2021/08/29 11:07:09;;;;;;;7.78;2.22;;;;;;;19.60;62.97;101857.97;4836654;29;113542;-77
2021/08/29 11:09:44;;;;;;;5.18;2.20;;;;;;;19.59;63.15;101853.56;4844988;28;113538;-76
2021/08/29 11:12:15;;;;;;;6.07;1.80;;;;;;;19.59;63.09;101853.56;4845640;28;123731;-75
2021/08/29 11:14:48;;;;;;;4.00;2.20;;;;;;;19.60;63.03;101847.22;4839318;29;122214;-75
2021/08/29 11:17:22;;;;;;;5.13;1.90;;;;;;;19.59;63.26;101850.88;4842651;28;114583;-75
2021/08/29 11:20:02;;;;;;;6.07;1.80;;;;;;;19.58;63.23;101843.75;4851980;29;114353;-76
2021/08/29 11:22:49;;;;;;;4.50;1.77;;;;;;;19.60;63.32;101844.53;4855252;29;124823;-76
2021/08/29 11:25:35;;;;;;;5.25;1.60;;;;;;;19.61;63.44;101848.94;4856632;29;125067;-76
2021/08/29 11:28:28;;;;;;;;;;;;;;;19.59;62.86;101845.50;4855325;29;115496;-76
2021/08/29 11:31:53;;;;;;;4.90;1.70;;;;;;;19.59;62.97;101845.50;4843250;28;113542;-76
2021/08/29 11:34:27;;;;;;;4.03;1.58;;;;;;;19.61;63.30;101840.03;4839688;29;122692;-76
2021/08/29 11:36:55;;;;;;;3.83;1.80;;;;;;;19.63;63.60;101844.31;4856744;29;124281;-75
2021/08/29 11:39:35;;;;;;;5.27;1.90;;;;;;;19.64;63.53;101848.72;4842905;29;115068;-76
2021/08/29 11:42:19;;;;;;;3.00;1.58;;;;;;;19.68;63.49;101843.16;4842140;28;113580;-76
2021/08/29 11:44:55;;;;;;;4.15;1.65;;;;;;;19.68;63.31;101843.16;4829590;29;123457;-75
2021/08/29 11:47:23;;;;;;;5.47;1.67;;;;;;;19.69;63.46;101844.88;4828556;29;122732;-76
2021/08/29 11:50:10;;;;;;;4.90;1.70;;;;;;;19.69;63.57;101839.50;4825209;29;114310;-75
2021/08/29 11:53:00;;;;;;;4.93;1.73;;;;;;;19.70;63.78;101846.59;4856656;29;114284;-75
2021/08/29 11:55:27;;;;;;;5.45;1.80;;;;;;;19.72;63.77;101844.66;4852602;29;123322;-76
2021/08/29 11:57:56;;;;;;;4.20;1.83;;;;;;;19.74;63.78;101840.06;4841663;29;123977;-75
2021/08/29 12:00:28;;;;;;;5.97;1.70;;;;;;;19.76;63.74;101838.13;4844577;28;113835;-75